sensor_id;sensor_type;location;lat;lon;timestamp;P1;durP1;ratioP1;P2;durP2;ratioP2
24008;SDS011;12217;50.792;4.372;2023-04-16T00:00:05;11.27;;;5.53;;
24008;SDS011;12217;50.792;4.372;2023-04-16T00:02:31;11.55;;;5.63;;
24008;SDS011;12217;50.792;4.372;2023-04-16T00:04:57;10.20;;;5.22;;
24008;SDS011;12217;50.792;4.372;2023-04-16T00:07:23;10.52;;;5.03;;
24008;SDS011;12217;50.792;4.372;2023-04-16T00:09:48;10.80;;;5.35;;
24008;SDS011;12217;50.792;4.372;2023-04-16T00:12:14;9.35;;;5.32;;
24008;SDS011;12217;50.792;4.372;2023-04-16T00:14:40;8.05;;;4.60;;
24008;SDS011;12217;50.792;4.372;2023-04-16T00:17:07;8.82;;;5.05;;
24008;SDS011;12217;50.792;4.372;2023-04-16T00:19:33;11.60;;;5.45;;
24008;SDS011;12217;50.792;4.372;2023-04-16T00:21:59;11.45;;;5.15;;
24008;SDS011;12217;50.792;4.372;2023-04-16T00:24:25;8.52;;;5.43;;
24008;SDS011;12217;50.792;4.372;2023-04-16T00:26:50;11.00;;;4.68;;
24008;SDS011;12217;50.792;4.372;2023-04-16T00:29:16;8.38;;;4.20;;
24008;SDS011;12217;50.792;4.372;2023-04-16T00:31:41;8.77;;;4.75;;
24008;SDS011;12217;50.792;4.372;2023-04-16T00:34:07;10.52;;;5.10;;
24008;SDS011;12217;50.792;4.372;2023-04-16T00:36:32;8.68;;;5.25;;
24008;SDS011;12217;50.792;4.372;2023-04-16T00:38:58;12.68;;;4.93;;
24008;SDS011;12217;50.792;4.372;2023-04-16T00:41:24;9.20;;;5.38;;
24008;SDS011;12217;50.792;4.372;2023-04-16T00:43:50;7.90;;;5.28;;
24008;SDS011;12217;50.792;4.372;2023-04-16T00:46:16;9.32;;;5.20;;
24008;SDS011;12217;50.792;4.372;2023-04-16T00:48:43;11.60;;;5.57;;
24008;SDS011;12217;50.792;4.372;2023-04-16T00:51:10;8.57;;;5.47;;
24008;SDS011;12217;50.792;4.372;2023-04-16T00:53:36;11.00;;;5.72;;
24008;SDS011;12217;50.792;4.372;2023-04-16T00:56:02;13.82;;;6.47;;
24008;SDS011;12217;50.792;4.372;2023-04-16T00:58:29;11.30;;;6.28;;
24008;SDS011;12217;50.792;4.372;2023-04-16T01:00:56;14.23;;;6.85;;
24008;SDS011;12217;50.792;4.372;2023-04-16T01:03:22;10.43;;;6.65;;
24008;SDS011;12217;50.792;4.372;2023-04-16T01:05:51;11.82;;;6.00;;
24008;SDS011;12217;50.792;4.372;2023-04-16T01:08:16;7.95;;;5.50;;
24008;SDS011;12217;50.792;4.372;2023-04-16T01:10:43;12.02;;;5.78;;
24008;SDS011;12217;50.792;4.372;2023-04-16T01:13:09;9.10;;;5.13;;
24008;SDS011;12217;50.792;4.372;2023-04-16T01:15:35;11.48;;;5.43;;
24008;SDS011;12217;50.792;4.372;2023-04-16T01:18:01;9.50;;;5.18;;
24008;SDS011;12217;50.792;4.372;2023-04-16T01:20:26;11.90;;;5.88;;
24008;SDS011;12217;50.792;4.372;2023-04-16T01:22:52;8.20;;;4.00;;
24008;SDS011;12217;50.792;4.372;2023-04-16T01:25:17;6.43;;;3.60;;
24008;SDS011;12217;50.792;4.372;2023-04-16T01:27:43;9.23;;;3.92;;
24008;SDS011;12217;50.792;4.372;2023-04-16T01:30:09;5.55;;;3.53;;
24008;SDS011;12217;50.792;4.372;2023-04-16T01:32:35;6.20;;;3.60;;
24008;SDS011;12217;50.792;4.372;2023-04-16T01:35:00;7.35;;;3.10;;
24008;SDS011;12217;50.792;4.372;2023-04-16T01:37:27;7.43;;;3.17;;
24008;SDS011;12217;50.792;4.372;2023-04-16T01:39:53;8.52;;;3.47;;
24008;SDS011;12217;50.792;4.372;2023-04-16T01:42:19;10.48;;;3.60;;
24008;SDS011;12217;50.792;4.372;2023-04-16T01:44:45;8.05;;;3.75;;
24008;SDS011;12217;50.792;4.372;2023-04-16T01:47:11;11.48;;;5.28;;
24008;SDS011;12217;50.792;4.372;2023-04-16T01:49:37;5.90;;;4.30;;
24008;SDS011;12217;50.792;4.372;2023-04-16T01:52:02;8.20;;;4.32;;
24008;SDS011;12217;50.792;4.372;2023-04-16T01:54:28;9.23;;;4.47;;
24008;SDS011;12217;50.792;4.372;2023-04-16T01:56:54;10.00;;;4.65;;
24008;SDS011;12217;50.792;4.372;2023-04-16T01:59:19;12.15;;;4.90;;
24008;SDS011;12217;50.792;4.372;2023-04-16T02:01:45;11.27;;;4.90;;
24008;SDS011;12217;50.792;4.372;2023-04-16T02:04:10;12.23;;;4.57;;
24008;SDS011;12217;50.792;4.372;2023-04-16T02:06:36;12.95;;;4.70;;
24008;SDS011;12217;50.792;4.372;2023-04-16T02:09:02;6.97;;;4.50;;
24008;SDS011;12217;50.792;4.372;2023-04-16T02:11:28;9.70;;;5.10;;
24008;SDS011;12217;50.792;4.372;2023-04-16T02:13:53;12.70;;;4.90;;
24008;SDS011;12217;50.792;4.372;2023-04-16T02:16:19;11.82;;;4.65;;
24008;SDS011;12217;50.792;4.372;2023-04-16T02:18:45;9.27;;;4.20;;
24008;SDS011;12217;50.792;4.372;2023-04-16T02:21:10;8.10;;;4.45;;
24008;SDS011;12217;50.792;4.372;2023-04-16T02:23:36;5.63;;;3.90;;
24008;SDS011;12217;50.792;4.372;2023-04-16T02:26:04;7.93;;;3.95;;
24008;SDS011;12217;50.792;4.372;2023-04-16T02:28:30;6.13;;;4.28;;
24008;SDS011;12217;50.792;4.372;2023-04-16T02:30:56;8.63;;;4.22;;
24008;SDS011;12217;50.792;4.372;2023-04-16T02:33:21;8.73;;;3.97;;
24008;SDS011;12217;50.792;4.372;2023-04-16T02:35:49;6.68;;;3.80;;
24008;SDS011;12217;50.792;4.372;2023-04-16T02:38:15;5.78;;;3.42;;
24008;SDS011;12217;50.792;4.372;2023-04-16T02:40:41;3.92;;;3.42;;
24008;SDS011;12217;50.792;4.372;2023-04-16T02:43:06;5.45;;;3.38;;
24008;SDS011;12217;50.792;4.372;2023-04-16T02:45:32;8.65;;;3.70;;
24008;SDS011;12217;50.792;4.372;2023-04-16T02:47:58;10.05;;;4.05;;
24008;SDS011;12217;50.792;4.372;2023-04-16T02:50:24;8.45;;;3.92;;
24008;SDS011;12217;50.792;4.372;2023-04-16T02:52:50;7.90;;;3.67;;
24008;SDS011;12217;50.792;4.372;2023-04-16T02:55:16;9.90;;;4.00;;
24008;SDS011;12217;50.792;4.372;2023-04-16T02:57:41;7.85;;;3.60;;
24008;SDS011;12217;50.792;4.372;2023-04-16T03:00:07;6.57;;;3.78;;
24008;SDS011;12217;50.792;4.372;2023-04-16T03:02:33;5.35;;;4.00;;
24008;SDS011;12217;50.792;4.372;2023-04-16T03:04:58;4.63;;;3.60;;
24008;SDS011;12217;50.792;4.372;2023-04-16T03:07:24;4.47;;;3.60;;
24008;SDS011;12217;50.792;4.372;2023-04-16T03:09:50;11.25;;;3.75;;
24008;SDS011;12217;50.792;4.372;2023-04-16T03:12:15;6.75;;;3.80;;
24008;SDS011;12217;50.792;4.372;2023-04-16T03:14:41;9.25;;;4.10;;
24008;SDS011;12217;50.792;4.372;2023-04-16T03:17:07;10.05;;;4.05;;
24008;SDS011;12217;50.792;4.372;2023-04-16T03:19:32;7.70;;;3.63;;
24008;SDS011;12217;50.792;4.372;2023-04-16T03:21:58;9.05;;;3.38;;
24008;SDS011;12217;50.792;4.372;2023-04-16T03:24:23;6.35;;;3.40;;
24008;SDS011;12217;50.792;4.372;2023-04-16T03:26:50;7.00;;;3.35;;
24008;SDS011;12217;50.792;4.372;2023-04-16T03:29:15;8.07;;;3.30;;
24008;SDS011;12217;50.792;4.372;2023-04-16T03:31:41;8.95;;;3.60;;
24008;SDS011;12217;50.792;4.372;2023-04-16T03:34:06;7.57;;;3.40;;
24008;SDS011;12217;50.792;4.372;2023-04-16T03:36:32;8.45;;;3.35;;
24008;SDS011;12217;50.792;4.372;2023-04-16T03:38:57;8.45;;;3.25;;
24008;SDS011;12217;50.792;4.372;2023-04-16T03:41:23;7.60;;;3.17;;
24008;SDS011;12217;50.792;4.372;2023-04-16T03:43:49;8.68;;;2.80;;
24008;SDS011;12217;50.792;4.372;2023-04-16T03:46:14;7.63;;;3.00;;
24008;SDS011;12217;50.792;4.372;2023-04-16T03:48:40;6.47;;;3.08;;
24008;SDS011;12217;50.792;4.372;2023-04-16T03:51:05;5.63;;;2.40;;
24008;SDS011;12217;50.792;4.372;2023-04-16T03:53:31;7.53;;;2.95;;
24008;SDS011;12217;50.792;4.372;2023-04-16T03:55:57;7.30;;;2.50;;
24008;SDS011;12217;50.792;4.372;2023-04-16T03:58:23;11.25;;;2.90;;
24008;SDS011;12217;50.792;4.372;2023-04-16T04:00:48;10.30;;;2.95;;
24008;SDS011;12217;50.792;4.372;2023-04-16T04:03:16;9.05;;;3.00;;
24008;SDS011;12217;50.792;4.372;2023-04-16T04:05:42;10.13;;;3.20;;
24008;SDS011;12217;50.792;4.372;2023-04-16T04:08:09;5.28;;;2.60;;
24008;SDS011;12217;50.792;4.372;2023-04-16T04:10:34;7.70;;;3.03;;
24008;SDS011;12217;50.792;4.372;2023-04-16T04:13:01;6.68;;;2.70;;
24008;SDS011;12217;50.792;4.372;2023-04-16T04:15:27;16.73;;;3.45;;
24008;SDS011;12217;50.792;4.372;2023-04-16T04:17:53;10.98;;;4.03;;
24008;SDS011;12217;50.792;4.372;2023-04-16T04:20:19;6.93;;;3.25;;
24008;SDS011;12217;50.792;4.372;2023-04-16T04:22:44;9.15;;;4.00;;
24008;SDS011;12217;50.792;4.372;2023-04-16T04:25:10;9.00;;;4.53;;
24008;SDS011;12217;50.792;4.372;2023-04-16T04:27:36;6.63;;;3.75;;
24008;SDS011;12217;50.792;4.372;2023-04-16T04:30:02;6.60;;;3.75;;
24008;SDS011;12217;50.792;4.372;2023-04-16T04:32:30;6.00;;;3.95;;
24008;SDS011;12217;50.792;4.372;2023-04-16T04:34:56;9.68;;;4.25;;
24008;SDS011;12217;50.792;4.372;2023-04-16T04:37:23;11.18;;;4.38;;
24008;SDS011;12217;50.792;4.372;2023-04-16T04:39:49;8.30;;;4.82;;
24008;SDS011;12217;50.792;4.372;2023-04-16T04:42:15;7.35;;;4.90;;
24008;SDS011;12217;50.792;4.372;2023-04-16T04:44:42;8.00;;;5.03;;
24008;SDS011;12217;50.792;4.372;2023-04-16T04:47:08;10.02;;;4.95;;
24008;SDS011;12217;50.792;4.372;2023-04-16T04:49:34;8.15;;;4.70;;
24008;SDS011;12217;50.792;4.372;2023-04-16T04:52:00;9.00;;;4.82;;
24008;SDS011;12217;50.792;4.372;2023-04-16T04:54:26;10.85;;;5.20;;
24008;SDS011;12217;50.792;4.372;2023-04-16T04:56:53;9.52;;;4.70;;
24008;SDS011;12217;50.792;4.372;2023-04-16T04:59:19;10.02;;;4.95;;
24008;SDS011;12217;50.792;4.372;2023-04-16T05:01:45;8.65;;;4.30;;
24008;SDS011;12217;50.792;4.372;2023-04-16T05:04:10;9.63;;;4.55;;
24008;SDS011;12217;50.792;4.372;2023-04-16T05:06:36;10.27;;;4.40;;
24008;SDS011;12217;50.792;4.372;2023-04-16T05:09:01;13.82;;;4.63;;
24008;SDS011;12217;50.792;4.372;2023-04-16T05:11:27;8.63;;;3.92;;
24008;SDS011;12217;50.792;4.372;2023-04-16T05:13:53;12.00;;;4.22;;
24008;SDS011;12217;50.792;4.372;2023-04-16T05:16:19;12.02;;;4.05;;
24008;SDS011;12217;50.792;4.372;2023-04-16T05:18:44;9.20;;;3.75;;
24008;SDS011;12217;50.792;4.372;2023-04-16T05:21:10;5.97;;;3.10;;
24008;SDS011;12217;50.792;4.372;2023-04-16T05:23:36;7.03;;;3.40;;
24008;SDS011;12217;50.792;4.372;2023-04-16T05:26:01;7.47;;;3.22;;
24008;SDS011;12217;50.792;4.372;2023-04-16T05:28:27;10.73;;;3.58;;
24008;SDS011;12217;50.792;4.372;2023-04-16T05:30:54;10.85;;;3.13;;
24008;SDS011;12217;50.792;4.372;2023-04-16T05:33:19;9.73;;;3.30;;
24008;SDS011;12217;50.792;4.372;2023-04-16T05:35:45;5.93;;;2.72;;
24008;SDS011;12217;50.792;4.372;2023-04-16T05:38:10;9.90;;;3.13;;
24008;SDS011;12217;50.792;4.372;2023-04-16T05:40:36;12.70;;;3.13;;
24008;SDS011;12217;50.792;4.372;2023-04-16T05:43:02;9.23;;;3.10;;
24008;SDS011;12217;50.792;4.372;2023-04-16T05:45:27;5.55;;;3.00;;
24008;SDS011;12217;50.792;4.372;2023-04-16T05:47:53;6.22;;;2.80;;
24008;SDS011;12217;50.792;4.372;2023-04-16T05:50:18;6.88;;;3.15;;
24008;SDS011;12217;50.792;4.372;2023-04-16T05:52:44;9.85;;;3.00;;
24008;SDS011;12217;50.792;4.372;2023-04-16T05:55:10;8.32;;;2.92;;
24008;SDS011;12217;50.792;4.372;2023-04-16T05:57:35;7.65;;;2.85;;
24008;SDS011;12217;50.792;4.372;2023-04-16T06:00:01;11.20;;;3.08;;
24008;SDS011;12217;50.792;4.372;2023-04-16T06:02:27;10.15;;;3.10;;
24008;SDS011;12217;50.792;4.372;2023-04-16T06:04:55;8.93;;;3.30;;
24008;SDS011;12217;50.792;4.372;2023-04-16T06:07:20;12.77;;;4.03;;
24008;SDS011;12217;50.792;4.372;2023-04-16T06:09:46;6.72;;;2.88;;
24008;SDS011;12217;50.792;4.372;2023-04-16T06:12:12;9.40;;;3.10;;
24008;SDS011;12217;50.792;4.372;2023-04-16T06:14:37;11.05;;;4.03;;
24008;SDS011;12217;50.792;4.372;2023-04-16T06:17:03;11.93;;;3.72;;
24008;SDS011;12217;50.792;4.372;2023-04-16T06:19:28;11.35;;;3.30;;
24008;SDS011;12217;50.792;4.372;2023-04-16T06:21:54;6.78;;;3.47;;
24008;SDS011;12217;50.792;4.372;2023-04-16T06:24:20;8.95;;;3.85;;
24008;SDS011;12217;50.792;4.372;2023-04-16T06:26:46;7.07;;;3.60;;
24008;SDS011;12217;50.792;4.372;2023-04-16T06:29:11;8.05;;;3.92;;
24008;SDS011;12217;50.792;4.372;2023-04-16T06:31:40;11.65;;;3.97;;
24008;SDS011;12217;50.792;4.372;2023-04-16T06:34:05;12.05;;;4.15;;
24008;SDS011;12217;50.792;4.372;2023-04-16T06:36:32;8.38;;;4.10;;
24008;SDS011;12217;50.792;4.372;2023-04-16T06:38:57;10.55;;;4.20;;
24008;SDS011;12217;50.792;4.372;2023-04-16T06:41:23;9.25;;;4.75;;
24008;SDS011;12217;50.792;4.372;2023-04-16T06:43:50;10.65;;;4.93;;
24008;SDS011;12217;50.792;4.372;2023-04-16T06:46:16;12.20;;;4.45;;
24008;SDS011;12217;50.792;4.372;2023-04-16T06:48:41;10.07;;;4.75;;
24008;SDS011;12217;50.792;4.372;2023-04-16T06:51:07;11.02;;;5.68;;
24008;SDS011;12217;50.792;4.372;2023-04-16T06:53:33;9.55;;;4.82;;
24008;SDS011;12217;50.792;4.372;2023-04-16T06:55:59;9.57;;;5.40;;
24008;SDS011;12217;50.792;4.372;2023-04-16T06:58:24;9.68;;;5.03;;
24008;SDS011;12217;50.792;4.372;2023-04-16T07:00:51;10.65;;;5.35;;
24008;SDS011;12217;50.792;4.372;2023-04-16T07:03:17;13.65;;;5.22;;
24008;SDS011;12217;50.792;4.372;2023-04-16T07:05:42;11.75;;;5.55;;
24008;SDS011;12217;50.792;4.372;2023-04-16T07:08:08;12.05;;;6.15;;
24008;SDS011;12217;50.792;4.372;2023-04-16T07:10:33;16.10;;;6.70;;
24008;SDS011;12217;50.792;4.372;2023-04-16T07:12:59;12.20;;;6.63;;
24008;SDS011;12217;50.792;4.372;2023-04-16T07:15:25;14.05;;;7.03;;
24008;SDS011;12217;50.792;4.372;2023-04-16T07:17:51;12.23;;;7.07;;
24008;SDS011;12217;50.792;4.372;2023-04-16T07:20:17;11.10;;;7.95;;
24008;SDS011;12217;50.792;4.372;2023-04-16T07:22:42;13.38;;;8.25;;
24008;SDS011;12217;50.792;4.372;2023-04-16T07:25:08;13.75;;;7.70;;
24008;SDS011;12217;50.792;4.372;2023-04-16T07:27:33;14.18;;;8.48;;
24008;SDS011;12217;50.792;4.372;2023-04-16T07:29:59;17.50;;;8.77;;
24008;SDS011;12217;50.792;4.372;2023-04-16T07:32:26;17.08;;;8.95;;
24008;SDS011;12217;50.792;4.372;2023-04-16T07:34:51;15.15;;;8.93;;
24008;SDS011;12217;50.792;4.372;2023-04-16T07:37:17;19.30;;;8.50;;
24008;SDS011;12217;50.792;4.372;2023-04-16T07:39:42;14.45;;;8.27;;
24008;SDS011;12217;50.792;4.372;2023-04-16T07:42:08;15.13;;;8.48;;
24008;SDS011;12217;50.792;4.372;2023-04-16T07:44:34;16.10;;;8.55;;
24008;SDS011;12217;50.792;4.372;2023-04-16T07:47:00;16.02;;;9.13;;
24008;SDS011;12217;50.792;4.372;2023-04-16T07:49:25;13.32;;;8.90;;
24008;SDS011;12217;50.792;4.372;2023-04-16T07:51:51;13.48;;;7.90;;
24008;SDS011;12217;50.792;4.372;2023-04-16T07:54:17;13.95;;;7.95;;
24008;SDS011;12217;50.792;4.372;2023-04-16T07:56:44;13.07;;;7.97;;
24008;SDS011;12217;50.792;4.372;2023-04-16T07:59:10;14.05;;;7.43;;
24008;SDS011;12217;50.792;4.372;2023-04-16T08:01:35;12.18;;;7.30;;
24008;SDS011;12217;50.792;4.372;2023-04-16T08:04:01;11.40;;;7.45;;
24008;SDS011;12217;50.792;4.372;2023-04-16T08:06:27;16.00;;;7.68;;
24008;SDS011;12217;50.792;4.372;2023-04-16T08:08:52;16.08;;;8.10;;
24008;SDS011;12217;50.792;4.372;2023-04-16T08:11:18;14.40;;;7.93;;
24008;SDS011;12217;50.792;4.372;2023-04-16T08:13:44;17.73;;;8.43;;
24008;SDS011;12217;50.792;4.372;2023-04-16T08:16:10;18.35;;;8.63;;
24008;SDS011;12217;50.792;4.372;2023-04-16T08:18:35;14.05;;;8.88;;
24008;SDS011;12217;50.792;4.372;2023-04-16T08:21:01;13.85;;;9.05;;
24008;SDS011;12217;50.792;4.372;2023-04-16T08:23:26;17.48;;;8.70;;
24008;SDS011;12217;50.792;4.372;2023-04-16T08:25:53;16.50;;;9.07;;
24008;SDS011;12217;50.792;4.372;2023-04-16T08:28:18;19.75;;;10.38;;
24008;SDS011;12217;50.792;4.372;2023-04-16T08:30:44;17.38;;;10.18;;
24008;SDS011;12217;50.792;4.372;2023-04-16T08:33:10;18.38;;;10.40;;
24008;SDS011;12217;50.792;4.372;2023-04-16T08:35:38;20.17;;;10.95;;
24008;SDS011;12217;50.792;4.372;2023-04-16T08:38:03;19.85;;;10.88;;
24008;SDS011;12217;50.792;4.372;2023-04-16T08:40:29;21.60;;;12.02;;
24008;SDS011;12217;50.792;4.372;2023-04-16T08:42:57;17.70;;;10.98;;
24008;SDS011;12217;50.792;4.372;2023-04-16T08:45:25;21.75;;;11.85;;
24008;SDS011;12217;50.792;4.372;2023-04-16T08:47:51;22.73;;;11.32;;
24008;SDS011;12217;50.792;4.372;2023-04-16T08:50:21;20.13;;;10.48;;
24008;SDS011;12217;50.792;4.372;2023-04-16T08:52:51;20.65;;;10.95;;
24008;SDS011;12217;50.792;4.372;2023-04-16T08:55:21;13.35;;;10.00;;
24008;SDS011;12217;50.792;4.372;2023-04-16T08:57:51;15.35;;;9.23;;
24008;SDS011;12217;50.792;4.372;2023-04-16T09:00:21;18.63;;;10.52;;
24008;SDS011;12217;50.792;4.372;2023-04-16T09:02:48;19.60;;;10.75;;
24008;SDS011;12217;50.792;4.372;2023-04-16T09:05:15;21.42;;;11.52;;
24008;SDS011;12217;50.792;4.372;2023-04-16T09:07:41;20.90;;;10.30;;
24008;SDS011;12217;50.792;4.372;2023-04-16T09:10:11;18.35;;;11.73;;
24008;SDS011;12217;50.792;4.372;2023-04-16T09:12:39;21.05;;;12.60;;
24008;SDS011;12217;50.792;4.372;2023-04-16T09:15:08;19.25;;;10.65;;
24008;SDS011;12217;50.792;4.372;2023-04-16T09:17:35;24.30;;;11.95;;
24008;SDS011;12217;50.792;4.372;2023-04-16T09:20:01;22.92;;;12.45;;
24008;SDS011;12217;50.792;4.372;2023-04-16T09:25:00;20.52;;;13.25;;
24008;SDS011;12217;50.792;4.372;2023-04-16T09:27:26;21.05;;;12.88;;
24008;SDS011;12217;50.792;4.372;2023-04-16T09:29:52;23.35;;;13.30;;
24008;SDS011;12217;50.792;4.372;2023-04-16T09:32:19;22.65;;;13.05;;
24008;SDS011;12217;50.792;4.372;2023-04-16T09:34:55;26.20;;;12.93;;
24008;SDS011;12217;50.792;4.372;2023-04-16T09:37:22;25.63;;;12.88;;
24008;SDS011;12217;50.792;4.372;2023-04-16T09:39:54;23.90;;;12.95;;
24008;SDS011;12217;50.792;4.372;2023-04-16T09:42:25;20.38;;;12.52;;
24008;SDS011;12217;50.792;4.372;2023-04-16T09:44:58;22.65;;;13.48;;
24008;SDS011;12217;50.792;4.372;2023-04-16T09:47:25;18.70;;;11.65;;
24008;SDS011;12217;50.792;4.372;2023-04-16T09:50:02;21.70;;;13.27;;
24008;SDS011;12217;50.792;4.372;2023-04-16T09:52:27;18.00;;;11.57;;
24008;SDS011;12217;50.792;4.372;2023-04-16T09:54:53;22.35;;;12.57;;
24008;SDS011;12217;50.792;4.372;2023-04-16T09:57:22;22.52;;;12.20;;
24008;SDS011;12217;50.792;4.372;2023-04-16T09:59:52;22.02;;;12.38;;
24008;SDS011;12217;50.792;4.372;2023-04-16T10:04:51;20.23;;;10.68;;
24008;SDS011;12217;50.792;4.372;2023-04-16T10:07:18;15.00;;;10.07;;
24008;SDS011;12217;50.792;4.372;2023-04-16T10:09:45;17.10;;;10.90;;
24008;SDS011;12217;50.792;4.372;2023-04-16T10:12:12;19.08;;;11.38;;
24008;SDS011;12217;50.792;4.372;2023-04-16T10:14:38;21.33;;;12.02;;
24008;SDS011;12217;50.792;4.372;2023-04-16T10:17:05;18.95;;;12.18;;
24008;SDS011;12217;50.792;4.372;2023-04-16T10:19:31;18.45;;;12.10;;
24008;SDS011;12217;50.792;4.372;2023-04-16T10:21:57;14.55;;;11.52;;
24008;SDS011;12217;50.792;4.372;2023-04-16T10:24:30;17.98;;;11.57;;
24008;SDS011;12217;50.792;4.372;2023-04-16T10:26:58;16.77;;;11.50;;
24008;SDS011;12217;50.792;4.372;2023-04-16T10:29:28;17.17;;;12.25;;
24008;SDS011;12217;50.792;4.372;2023-04-16T10:31:54;20.92;;;12.27;;
24008;SDS011;12217;50.792;4.372;2023-04-16T10:34:22;18.80;;;11.32;;
24008;SDS011;12217;50.792;4.372;2023-04-16T10:36:49;14.57;;;10.98;;
24008;SDS011;12217;50.792;4.372;2023-04-16T10:42:38;19.40;;;11.60;;
24008;SDS011;12217;50.792;4.372;2023-04-16T10:45:04;22.02;;;13.48;;
24008;SDS011;12217;50.792;4.372;2023-04-16T10:47:30;16.80;;;12.93;;
24008;SDS011;12217;50.792;4.372;2023-04-16T10:49:56;18.08;;;12.70;;
24008;SDS011;12217;50.792;4.372;2023-04-16T10:52:22;20.15;;;11.80;;
24008;SDS011;12217;50.792;4.372;2023-04-16T10:54:49;19.35;;;12.23;;
24008;SDS011;12217;50.792;4.372;2023-04-16T10:57:18;17.92;;;12.57;;
24008;SDS011;12217;50.792;4.372;2023-04-16T10:59:44;21.33;;;12.93;;
24008;SDS011;12217;50.792;4.372;2023-04-16T11:02:13;20.52;;;12.13;;
24008;SDS011;12217;50.792;4.372;2023-04-16T11:04:45;20.80;;;12.65;;
24008;SDS011;12217;50.792;4.372;2023-04-16T11:12:41;17.95;;;12.93;;
24008;SDS011;12217;50.792;4.372;2023-04-16T11:15:11;17.95;;;11.57;;
24008;SDS011;12217;50.792;4.372;2023-04-16T11:22:42;19.58;;;11.25;;
24008;SDS011;12217;50.792;4.372;2023-04-16T11:25:09;16.95;;;10.90;;
24008;SDS011;12217;50.792;4.372;2023-04-16T11:27:35;16.55;;;11.30;;
24008;SDS011;12217;50.792;4.372;2023-04-16T11:30:02;15.80;;;11.25;;
24008;SDS011;12217;50.792;4.372;2023-04-16T11:32:33;17.77;;;12.55;;
24008;SDS011;12217;50.792;4.372;2023-04-16T11:35:04;21.38;;;12.15;;
24008;SDS011;12217;50.792;4.372;2023-04-16T11:37:38;21.60;;;12.40;;
24008;SDS011;12217;50.792;4.372;2023-04-16T11:40:04;25.40;;;12.20;;
24008;SDS011;12217;50.792;4.372;2023-04-16T11:42:31;17.25;;;12.02;;
24008;SDS011;12217;50.792;4.372;2023-04-16T11:44:57;18.52;;;12.65;;
24008;SDS011;12217;50.792;4.372;2023-04-16T11:47:27;20.13;;;11.32;;
24008;SDS011;12217;50.792;4.372;2023-04-16T11:49:55;20.25;;;11.70;;
24008;SDS011;12217;50.792;4.372;2023-04-16T11:52:25;24.85;;;11.82;;
24008;SDS011;12217;50.792;4.372;2023-04-16T11:54:57;19.77;;;12.00;;
24008;SDS011;12217;50.792;4.372;2023-04-16T11:59:49;22.80;;;12.43;;
24008;SDS011;12217;50.792;4.372;2023-04-16T12:02:15;18.75;;;12.68;;
24008;SDS011;12217;50.792;4.372;2023-04-16T12:04:41;24.77;;;13.82;;
24008;SDS011;12217;50.792;4.372;2023-04-16T12:09:33;21.70;;;13.52;;
24008;SDS011;12217;50.792;4.372;2023-04-16T12:12:00;21.92;;;14.02;;
24008;SDS011;12217;50.792;4.372;2023-04-16T12:14:26;19.83;;;12.90;;
24008;SDS011;12217;50.792;4.372;2023-04-16T12:16:52;20.38;;;13.65;;
24008;SDS011;12217;50.792;4.372;2023-04-16T12:19:18;19.65;;;13.63;;
24008;SDS011;12217;50.792;4.372;2023-04-16T12:21:49;23.38;;;14.18;;
24008;SDS011;12217;50.792;4.372;2023-04-16T12:24:16;25.27;;;15.32;;
24008;SDS011;12217;50.792;4.372;2023-04-16T12:26:51;21.90;;;14.60;;
24008;SDS011;12217;50.792;4.372;2023-04-16T12:29:24;25.15;;;14.80;;
24008;SDS011;12217;50.792;4.372;2023-04-16T12:31:52;21.52;;;14.07;;
24008;SDS011;12217;50.792;4.372;2023-04-16T12:34:18;22.80;;;14.93;;
24008;SDS011;12217;50.792;4.372;2023-04-16T12:36:45;23.90;;;14.02;;
24008;SDS011;12217;50.792;4.372;2023-04-16T12:39:13;23.02;;;13.75;;
24008;SDS011;12217;50.792;4.372;2023-04-16T12:41:40;21.13;;;14.13;;
24008;SDS011;12217;50.792;4.372;2023-04-16T12:44:11;21.25;;;14.07;;
24008;SDS011;12217;50.792;4.372;2023-04-16T12:46:40;21.00;;;12.63;;
24008;SDS011;12217;50.792;4.372;2023-04-16T12:49:08;23.77;;;14.07;;
24008;SDS011;12217;50.792;4.372;2023-04-16T12:51:34;22.63;;;13.82;;
24008;SDS011;12217;50.792;4.372;2023-04-16T12:54:02;25.20;;;15.07;;
24008;SDS011;12217;50.792;4.372;2023-04-16T12:56:29;26.77;;;15.15;;
24008;SDS011;12217;50.792;4.372;2023-04-16T12:58:55;26.75;;;15.23;;
24008;SDS011;12217;50.792;4.372;2023-04-16T13:01:21;21.63;;;15.07;;
24008;SDS011;12217;50.792;4.372;2023-04-16T13:03:47;24.35;;;15.27;;
24008;SDS011;12217;50.792;4.372;2023-04-16T13:06:13;23.92;;;14.20;;
24008;SDS011;12217;50.792;4.372;2023-04-16T13:08:40;23.20;;;15.15;;
24008;SDS011;12217;50.792;4.372;2023-04-16T13:11:06;22.60;;;15.18;;
24008;SDS011;12217;50.792;4.372;2023-04-16T13:13:32;21.13;;;15.32;;
24008;SDS011;12217;50.792;4.372;2023-04-16T13:15:57;21.10;;;15.27;;
24008;SDS011;12217;50.792;4.372;2023-04-16T13:18:24;21.42;;;15.32;;
24008;SDS011;12217;50.792;4.372;2023-04-16T13:20:51;23.73;;;16.23;;
24008;SDS011;12217;50.792;4.372;2023-04-16T13:23:17;22.98;;;16.88;;
24008;SDS011;12217;50.792;4.372;2023-04-16T13:25:43;26.88;;;16.60;;
24008;SDS011;12217;50.792;4.372;2023-04-16T13:28:08;23.33;;;17.65;;
24008;SDS011;12217;50.792;4.372;2023-04-16T13:30:34;25.10;;;17.42;;
24008;SDS011;12217;50.792;4.372;2023-04-16T13:33:00;23.23;;;16.13;;
24008;SDS011;12217;50.792;4.372;2023-04-16T13:35:26;27.45;;;17.77;;
24008;SDS011;12217;50.792;4.372;2023-04-16T13:37:51;27.88;;;18.73;;
24008;SDS011;12217;50.792;4.372;2023-04-16T13:40:17;22.00;;;17.33;;
24008;SDS011;12217;50.792;4.372;2023-04-16T13:42:43;29.58;;;18.20;;
24008;SDS011;12217;50.792;4.372;2023-04-16T13:45:08;30.23;;;18.58;;
24008;SDS011;12217;50.792;4.372;2023-04-16T13:47:34;24.42;;;16.40;;
24008;SDS011;12217;50.792;4.372;2023-04-16T13:50:00;26.75;;;17.58;;
24008;SDS011;12217;50.792;4.372;2023-04-16T13:52:26;24.40;;;16.30;;
24008;SDS011;12217;50.792;4.372;2023-04-16T13:54:51;24.58;;;17.60;;
24008;SDS011;12217;50.792;4.372;2023-04-16T13:57:17;25.10;;;17.27;;
24008;SDS011;12217;50.792;4.372;2023-04-16T13:59:43;23.77;;;18.02;;
24008;SDS011;12217;50.792;4.372;2023-04-16T14:02:09;27.83;;;17.80;;
24008;SDS011;12217;50.792;4.372;2023-04-16T14:04:35;23.88;;;17.27;;
24008;SDS011;12217;50.792;4.372;2023-04-16T14:07:01;26.77;;;18.40;;
24008;SDS011;12217;50.792;4.372;2023-04-16T14:09:27;25.60;;;18.45;;
24008;SDS011;12217;50.792;4.372;2023-04-16T14:11:52;27.60;;;17.98;;
24008;SDS011;12217;50.792;4.372;2023-04-16T14:14:19;26.10;;;18.13;;
24008;SDS011;12217;50.792;4.372;2023-04-16T14:16:44;26.58;;;19.00;;
24008;SDS011;12217;50.792;4.372;2023-04-16T14:19:10;24.52;;;18.13;;
24008;SDS011;12217;50.792;4.372;2023-04-16T14:21:36;35.10;;;24.00;;
24008;SDS011;12217;50.792;4.372;2023-04-16T14:24:01;24.77;;;17.80;;
24008;SDS011;12217;50.792;4.372;2023-04-16T14:26:27;24.95;;;18.08;;
24008;SDS011;12217;50.792;4.372;2023-04-16T14:28:53;28.38;;;18.70;;
24008;SDS011;12217;50.792;4.372;2023-04-16T14:31:18;29.90;;;19.17;;
24008;SDS011;12217;50.792;4.372;2023-04-16T14:33:44;27.27;;;18.45;;
24008;SDS011;12217;50.792;4.372;2023-04-16T14:36:10;23.00;;;17.80;;
24008;SDS011;12217;50.792;4.372;2023-04-16T14:38:36;26.98;;;16.92;;
24008;SDS011;12217;50.792;4.372;2023-04-16T14:41:02;23.85;;;16.80;;
24008;SDS011;12217;50.792;4.372;2023-04-16T14:43:27;25.67;;;17.55;;
24008;SDS011;12217;50.792;4.372;2023-04-16T14:45:53;23.60;;;17.67;;
24008;SDS011;12217;50.792;4.372;2023-04-16T14:48:18;25.35;;;17.38;;
24008;SDS011;12217;50.792;4.372;2023-04-16T14:50:44;25.63;;;17.70;;